This is the latest recevied weather packets stored in our database for station/object KF0PEC-15. If no packets are shown the sender has not sent any weather packets the latest 10 day(s).
| Time | Temp. | Humidity | Pressure | Rain* | Wind** | Luminosity | Snow |
|---|---|---|---|---|---|---|---|
| 1777996620 | 3.89° C | 85% | 1019.2 hPa | 0 mm | - | 313 W/m² | - |
| 1777996090 | 3.89° C | 84% | 1019.1 hPa | 0 mm | - | 294 W/m² | - |
| 1777995580 | 3.89° C | 84% | 1019.2 hPa | 0 mm | - | 293 W/m² | - |
| 1777995035 | 3.89° C | 84% | 1019.1 hPa | 0 mm | - | 227 W/m² | - |
| 1777994465 | 4.44° C | 82% | 1019 hPa | 0 mm | - | 243 W/m² | - |
| 1777993970 | 4.44° C | 80% | 1018.6 hPa | 0 mm | - | 206 W/m² | - |
| 1777993375 | 5° C | 80% | 1018.3 hPa | 0 mm | - | 225 W/m² | - |
| 1777992860 | 5.56° C | 80% | 1017.9 hPa | 0 mm | - | 206 W/m² | - |
| 1777992260 | 5.56° C | 80% | 1017.9 hPa | 0 mm | - | 204 W/m² | - |
| 1777991780 | 5.56° C | 80% | 1017.8 hPa | 0 mm | - | 185 W/m² | - |
| 1777991210 | 5.56° C | 80% | 1017.7 hPa | 0 mm | - | 170 W/m² | - |
| 1777990700 | 5.56° C | 80% | 1017.6 hPa | 0 mm | - | 191 W/m² | - |
| 1777989600 | 6.11° C | 79% | 1017.4 hPa | 0 mm | - | 230 W/m² | - |
| 1777989033 | 6.11° C | 80% | 1017.4 hPa | 0 mm | - | 229 W/m² | - |
| 1777988465 | 6.11° C | 79% | 1017.1 hPa | 0 mm | - | 206 W/m² | - |
| 1777987970 | 6.11° C | 79% | 1017 hPa | 0 mm | - | 294 W/m² | - |
| 1777987485 | 6.11° C | 79% | 1016.6 hPa | 0 mm | - | 328 W/m² | - |
| 1777986990 | 6.11° C | 78% | 1016.5 hPa | 0 mm | - | 285 W/m² | - |
| 1777986441 | 6.11° C | 79% | 1016.4 hPa | 0 mm | - | 231 W/m² | - |
| 1777985900 | 6.11° C | 79% | 1016.2 hPa | 0 mm | - | 230 W/m² | - |
| 1777985420 | 6.67° C | 79% | 1016 hPa | 0 mm | - | 189 W/m² | - |
| 1777984849 | 6.67° C | 78% | 1015.8 hPa | 0 mm | - | 169 W/m² | - |
| 1777984369 | 6.67° C | 77% | 1015.7 hPa | 0 mm | - | 142 W/m² | - |
| 1777983859 | 6.67° C | 77% | 1015.1 hPa | 0 mm | - | 887 W/m² | - |
| 1777983329 | 6.67° C | 77% | 1015 hPa | 0 mm | - | 756 W/m² | - |
* Rain latest hour (hover to see other rain measurements)
** Current wind speed in m/s (hover to see current wind gust speed)